Upton, NY

8:25 AM EDT on October 20, 2014 (GMT -0400)
Rolling Hills | Change Station
CLOSE
Current Station
Personal Weather Station
Location: Ridge, NY
Elevation: 120 ft
Nearby Weather Stations
Active Advisory: Frost Advisory

Elev 120 ft 40.88 °N, 72.92 °W | Updated 12 seconds ago

Partly Cloudy
Partly Cloudy
38.1 °F
Feels Like 38 °F
N
0.0
Wind Variable Wind from NW
Gusts 0.0 mph

Today
High -- | Low -- °F
--% Chance of Precip.
Yesterday
High -- | Low -- °F
Precip. -- in
7:08 AM 6:03 PM
Waning Crescent, 11% visible
Pressure 30.11 in
Visibility 10.0 miles
Clouds Clear
Windchill 38 °F
Dew Point 34 °F
Humidity 84%
Rainfall 0.00 in
Snow Depth Not available.
UV 0 out of 12
Pollen .90 out of 12
Ozone Good
Flu Activity Sporadic
METAR KHWV 201156Z AUTO 25004KT 10SM CLR 03/00 A3011 RMK AO2 SLP196 6//// 7//// T00330000 10211 20033 TSNO $

More Conditions Fewer Conditions

Pressure 30.11 in
Visibility 10.0 miles
Clouds Clear
Windchill 38 °F
Dew Point 34 °F
Humidity 84%
Rainfall 0.00 in
Snow Depth Not available.
UV 0 out of 12
Pollen .90 out of 12
Ozone Good
Flu Activity Sporadic
METAR KHWV 201156Z AUTO 25004KT 10SM CLR 03/00 A3011 RMK AO2 SLP196 6//// 7//// T00330000 10211 20033 TSNO $

More Conditions Fewer Conditions

10-Day Weather Forecast

Almanac

Astronomy

Oct. 20, 2014 Rise Set
Actual Time 7:08 AM EDT 6:03 PM EDT
Civil Twilight 6:40 AM EDT 6:31 PM EDT
Nautical Twilight 6:08 AM EDT 7:03 PM EDT
Astronomical Twilight 5:36 AM EDT 7:35 PM EDT
Moon 3:52 AM EDT 4:26 PM EDT
Length of Visible Light 11h 51m
Length of Day
10h 55m
Waning Crescent, 11% of the Moon is Illuminated
Today
Waning Crescent
Oct 23
New
Oct 30
First Quarter
Nov 6
Full
Nov 14
Last Quarter

Today's Extremes

State Highs State Lows

Community

WunderPhotos

Upload Photos

1,763,349 photos uploaded!

WunderBlogs® & News

Nearby

Air Quality

  Air Quality AQ Index Pollutant
Yesterday Good
OZONE
Current Good
OZONE
Monday Good
PM2.5

Snow Depth

Station Depth Elevation
No new snow has been reported.

Earthquake Activity

City Distance Mag. Time & Date
No recent earthquake activity has been reported nearby.
Minimum magnitude displayed is 2.5.

Coastal Water Temperatures

Place Temperature
No Stations Reporting

Nearby Weather Stations